Sunday, April 22, 2018, 5:39 PM EDT
Back to Local

KGED, Georgetown Sussex Co Airport

Location: Georgetown, DE, United States Lat: 38.683
Local Time: 5:39 PM EDT (21:39 GMT) Lon: -75.367
Time Zone: US/Eastern Elev: 52 ft

Show me the last for .
Show Decoded

2018-04-22 16:54 METAR KGED 222054Z AUTO 15009KT 10SM CLR 15/M01 A3038 RMK AO2 SLP288 T01501006
                 56008 =
2018-04-22 15:54 METAR KGED 221954Z AUTO 13011KT 10SM CLR 16/M01 A3039 RMK AO2 SLP289 T01561011 =
2018-04-22 14:54 METAR KGED 221854Z AUTO 11007KT 10SM CLR 17/M01 A3039 RMK AO2 SLP292 T01671011 =
2018-04-22 13:54 METAR KGED 221754Z AUTO VRB04KT 10SM CLR 17/M01 A3040 RMK AO2 RAB42E52 SLP295
                 P0000 60000 T01671011 10172 20111 56011 =
2018-04-22 12:54 METAR KGED 221654Z AUTO 10010KT 10SM CLR 17/M02 A3041 RMK AO2 SLP298 T01671017 =
2018-04-22 11:54 METAR KGED 221554Z AUTO 05006KT 10SM CLR 17/M01 A3042 RMK AO2 SLP301 T01671006 =
2018-04-22 10:54 METAR KGED 221454Z AUTO 10005KT 10SM CLR 16/00 A3044 RMK AO2 SLP306 T01560000
                 53001 =
2018-04-22 09:54 METAR KGED 221354Z AUTO 04007KT 10SM CLR 15/03 A3044 RMK AO2 SLP305 T01500028 =
2018-04-22 08:54 METAR KGED 221254Z AUTO 00000KT 10SM CLR 13/04 A3043 RMK AO2 SLP304 T01330044 =
2018-04-22 07:54 METAR KGED 221154Z AUTO 00000KT 10SM CLR 11/06 A3043 RMK AO2 SLP305 T01110056
                 10111 20061 51016 =
2018-04-22 06:54 METAR KGED 221054Z AUTO 00000KT 10SM FEW120 08/05 A3042 RMK AO2 SLP302 T00780050
                 =
2018-04-22 05:54 METAR KGED 220954Z AUTO 00000KT 10SM CLR 08/06 A3042 RMK AO2 SLP301 T00780056 =
2018-04-22 04:54 METAR KGED 220854Z AUTO 00000KT 10SM CLR 07/04 A3039 RMK AO2 SLP290 T00670044
                 55002 =
2018-04-22 03:54 METAR KGED 220754Z AUTO 00000KT 10SM FEW120 07/04 A3038 RMK AO2 SLP289 T00670039
                 =
2018-04-22 02:54 METAR KGED 220654Z AUTO 00000KT 10SM CLR 07/03 A3038 RMK AO2 SLP289 T00670033 =
2018-04-22 01:54 METAR KGED 220554Z AUTO 00000KT 10SM CLR 07/03 A3039 RMK AO2 SLP292 T00720033
                 10133 20067 50002 =
2018-04-22 00:54 METAR KGED 220454Z AUTO 24003KT 10SM CLR 08/03 A3039 RMK AO2 SLP292 T00830028
                 401610006 =
2018-04-21 23:54 METAR KGED 220354Z AUTO 22004KT 10SM CLR 08/04 A3039 RMK AO2 SLP290 T00830039 =
2018-04-21 22:54 METAR KGED 220254Z AUTO 20004KT 10SM CLR 08/04 A3039 RMK AO2 SLP290 T00830039
                 50007 =
2018-04-21 21:54 METAR KGED 220154Z AUTO 19003KT 10SM CLR 09/04 A3039 RMK AO2 SLP292 T00890039 =
2018-04-21 20:54 METAR KGED 220054Z AUTO 00000KT 10SM CLR 09/03 A3038 RMK AO2 SLP287 T00890028 =
2018-04-21 19:54 METAR KGED 212354Z AUTO 00000KT 10SM CLR 13/M03 A3037 RMK AO2 SLP283 T01331028
                 10161 20133 53006 =
2018-04-21 18:54 METAR KGED 212254Z AUTO 30004KT 10SM CLR 14/M04 A3035 RMK AO2 SLP279 T01441044 =
2018-04-21 17:54 METAR KGED 212154Z AUTO 28008KT 10SM CLR 15/M05 A3035 RMK AO2 SLP278 T01501050 =

Support USWX by starting your Amazon purchase here.